Time;durP1;ratioP1;P1;durP2;ratioP2;P2;SDS_P1;SDS_P2;PMS_P1;PMS_P2;Temp;Humidity;BMP_temperature;BMP_pressure;BME280_temperature;BME280_humidity;BME280_pressure;Samples;Min_cycle;Max_cycle;Signal;HPM_P1;HPM_P2
2024/04/16 00:00:31;;;;;;;;;1.00;1.00;;;;;;;;5451380;26;11319;-82
2024/04/16 00:03:00;;;;;;;;;0.00;0.00;;;;;;;;5455027;26;11228;-88
2024/04/16 00:05:27;;;;;;;;;2.00;2.00;;;;;;;;5431825;26;11238;-87
2024/04/16 00:07:56;;;;;;;;;1.50;0.00;;;;;;;;5439741;26;11480;-86
2024/04/16 00:10:23;;;;;;;;;1.00;1.00;;;;;;;;5431692;26;11506;-85
2024/04/16 00:12:52;;;;;;;;;1.25;0.50;;;;;;;;5443997;26;11483;-89
2024/04/16 00:15:18;;;;;;;;;2.00;0.00;;;;;;;;5431971;26;11159;-85
2024/04/16 00:17:50;;;;;;;;;2.00;2.00;;;;;;;;5451825;26;11491;-87
2024/04/16 00:20:16;;;;;;;;;1.75;1.75;;;;;;;;5450599;26;11164;-87
2024/04/16 00:22:46;;;;;;;;;1.00;1.00;;;;;;;;5438480;26;11289;-88
2024/04/16 00:25:13;;;;;;;;;2.50;0.25;;;;;;;;5448755;26;11550;-88
2024/04/16 00:27:42;;;;;;;;;2.50;1.00;;;;;;;;5450716;26;11521;-91
2024/04/16 00:30:08;;;;;;;;;1.00;1.00;;;;;;;;5449463;26;11489;-89
2024/04/16 00:32:37;;;;;;;;;1.00;1.00;;;;;;;;5439316;26;11593;-89
2024/04/16 00:35:07;;;;;;;;;4.00;1.00;;;;;;;;5439981;26;11498;-89
2024/04/16 00:37:36;;;;;;;;;3.00;1.00;;;;;;;;5416546;26;11906;-89
2024/04/16 00:40:02;;;;;;;;;2.25;1.00;;;;;;;;5439158;26;11636;-85
2024/04/16 00:42:31;;;;;;;;;2.00;0.75;;;;;;;;5435541;26;11552;-86
2024/04/16 00:44:57;;;;;;;;;1.50;0.75;;;;;;;;5451767;26;11477;-85
2024/04/16 00:47:26;;;;;;;;;2.75;0.00;;;;;;;;5452615;26;11526;-84
2024/04/16 00:49:56;;;;;;;;;1.00;1.00;;;;;;;;5445795;26;11482;-82
2024/04/16 00:52:31;;;;;;;;;5.75;2.00;;;;;;;;5436277;26;11542;-84
2024/04/16 00:54:57;;;;;;;;;1.25;1.25;;;;;;;;5449857;26;11527;-90
2024/04/16 00:57:26;;;;;;;;;1.75;1.75;;;;;;;;5431050;26;11524;-83
2024/04/16 00:59:53;;;;;;;;;1.50;1.50;;;;;;;;5447091;26;11489;-86
2024/04/16 01:02:22;;;;;;;;;0.00;0.00;;;;;;;;5450146;26;11242;-88
2024/04/16 01:04:48;;;;;;;;;1.00;1.00;;;;;;;;5441065;26;11492;-87
2024/04/16 01:07:18;;;;;;;;;1.00;1.00;;;;;;;;5450406;26;12392;-85
2024/04/16 01:09:47;;;;;;;;;2.75;2.00;;;;;;;;5440950;26;11543;-89
2024/04/16 01:12:17;;;;;;;;;4.00;2.00;;;;;;;;5449951;26;11626;-89
2024/04/16 01:14:43;;;;;;;;;2.00;2.00;;;;;;;;5440686;26;11626;-88
2024/04/16 01:17:12;;;;;;;;;3.75;2.00;;;;;;;;5440932;26;11461;-83
2024/04/16 01:19:38;;;;;;;;;3.25;2.75;;;;;;;;5447996;26;11496;-88
2024/04/16 01:22:07;;;;;;;;;1.75;1.00;;;;;;;;5442454;26;11506;-88
2024/04/16 01:24:36;;;;;;;;;1.75;1.00;;;;;;;;5443048;26;11506;-88
2024/04/16 01:27:05;;;;;;;;;1.00;1.00;;;;;;;;5449555;26;11484;-86
2024/04/16 01:29:31;;;;;;;;;0.00;0.00;;;;;;;;5452282;26;11439;-88
2024/04/16 01:32:00;;;;;;;;;1.00;1.00;;;;;;;;5452188;26;11242;-88
2024/04/16 01:34:26;;;;;;;;;4.00;0.00;;;;;;;;5452797;26;11453;-88
2024/04/16 01:36:55;;;;;;;;;2.50;1.00;;;;;;;;5454109;26;11584;-88
2024/04/16 01:39:22;;;;;;;;;1.00;0.75;;;;;;;;5431581;26;11458;-88
2024/04/16 01:41:53;;;;;;;;;2.00;1.00;;;;;;;;5436839;26;11560;-88
2024/04/16 01:44:19;;;;;;;;;0.50;0.50;;;;;;;;5428798;26;11496;-88
2024/04/16 01:46:48;;;;;;;;;2.00;2.00;;;;;;;;5453611;26;11487;-86
2024/04/16 01:49:14;;;;;;;;;3.00;1.00;;;;;;;;5431753;26;11497;-86
2024/04/16 01:51:44;;;;;;;;;1.25;1.00;;;;;;;;5435527;26;11526;-88
2024/04/16 01:54:10;;;;;;;;;3.25;2.00;;;;;;;;5446189;26;11470;-87
2024/04/16 01:56:39;;;;;;;;;1.25;1.25;;;;;;;;5422772;26;11509;-86
2024/04/16 01:59:08;;;;;;;;;2.75;1.00;;;;;;;;5433829;26;11479;-88
2024/04/16 02:01:37;;;;;;;;;2.00;2.00;;;;;;;;5453769;26;11364;-88
2024/04/16 02:04:03;;;;;;;;;1.00;1.00;;;;;;;;5432631;26;11470;-89
2024/04/16 02:06:33;;;;;;;;;0.75;0.75;;;;;;;;5431379;26;11601;-86
2024/04/16 02:08:59;;;;;;;;;1.00;1.00;;;;;;;;5432175;26;11493;-88
2024/04/16 02:11:28;;;;;;;;;1.75;1.00;;;;;;;;5452174;26;11539;-88
2024/04/16 02:13:57;;;;;;;;;2.50;1.00;;;;;;;;5452753;26;11530;-87
2024/04/16 02:16:28;;;;;;;;;1.00;1.00;;;;;;;;5452261;26;11585;-89
2024/04/16 02:18:57;;;;;;;;;1.00;1.00;;;;;;;;5432931;26;11534;-83
2024/04/16 02:21:26;;;;;;;;;4.00;1.00;;;;;;;;5431954;26;11313;-86
2024/04/16 02:23:52;;;;;;;;;1.75;1.00;;;;;;;;5438865;26;11510;-85
2024/04/16 02:26:22;;;;;;;;;7.75;2.00;;;;;;;;5445519;26;11492;-86
2024/04/16 02:28:48;;;;;;;;;2.00;2.00;;;;;;;;5442565;26;11659;-89
2024/04/16 02:31:17;;;;;;;;;4.75;1.75;;;;;;;;5449415;26;11245;-88
2024/04/16 02:33:46;;;;;;;;;1.50;1.50;;;;;;;;5437679;26;11553;-89
2024/04/16 02:36:15;;;;;;;;;2.75;2.00;;;;;;;;5431546;26;11509;-89
2024/04/16 02:38:41;;;;;;;;;0.50;0.50;;;;;;;;5435159;26;11599;-88
2024/04/16 02:41:10;;;;;;;;;0.00;0.00;;;;;;;;5426266;26;11504;-89
2024/04/16 02:43:36;;;;;;;;;4.00;1.50;;;;;;;;5452417;26;11543;-89
2024/04/16 02:46:05;;;;;;;;;1.00;1.00;;;;;;;;5422799;26;11524;-88
2024/04/16 02:48:31;;;;;;;;;2.00;2.00;;;;;;;;5438557;26;11531;-88
2024/04/16 02:51:03;;;;;;;;;5.00;2.00;;;;;;;;5452991;26;11468;-86
2024/04/16 02:53:29;;;;;;;;;2.50;1.25;;;;;;;;5451931;26;11525;-85
2024/04/16 02:56:01;;;;;;;;;2.00;1.00;;;;;;;;5430789;26;12283;-88
2024/04/16 02:58:27;;;;;;;;;2.50;2.00;;;;;;;;5451875;26;11607;-87
2024/04/16 03:00:56;;;;;;;;;2.00;0.25;;;;;;;;5429868;26;11256;-87
2024/04/16 03:03:22;;;;;;;;;1.00;1.00;;;;;;;;5452037;26;11524;-87
2024/04/16 03:06:00;;;;;;;;;1.75;1.00;;;;;;;;5451573;26;11541;-87
2024/04/16 03:08:29;;;;;;;;;0.00;0.00;;;;;;;;5451896;26;11473;-87
2024/04/16 03:11:00;;;;;;;;;1.25;1.25;;;;;;;;5435683;26;11519;-87
2024/04/16 03:13:26;;;;;;;;;2.50;1.75;;;;;;;;5426358;26;11219;-89
2024/04/16 03:15:57;;;;;;;;;3.50;1.00;;;;;;;;5452454;26;11557;-87
2024/04/16 03:18:23;;;;;;;;;1.00;1.00;;;;;;;;5430365;26;11176;-90
2024/04/16 03:21:02;;;;;;;;;2.00;1.00;;;;;;;;5452486;26;11265;-87
2024/04/16 03:23:31;;;;;;;;;0.50;0.00;;;;;;;;5429321;26;11496;-87
2024/04/16 03:26:05;;;;;;;;;0.50;0.50;;;;;;;;5432551;26;11151;-86
2024/04/16 03:28:32;;;;;;;;;2.25;1.00;;;;;;;;5440290;26;11156;-87
2024/04/16 03:31:01;;;;;;;;;3.50;2.00;;;;;;;;5430613;26;11221;-88
2024/04/16 03:33:29;;;;;;;;;1.75;0.50;;;;;;;;5452971;26;11232;-85
2024/04/16 03:36:07;;;;;;;;;3.75;1.00;;;;;;;;5453216;26;11185;-89
2024/04/16 03:38:39;;;;;;;;;2.00;0.00;;;;;;;;5436411;26;11524;-88
2024/04/16 03:41:11;;;;;;;;;2.00;0.75;;;;;;;;5450363;26;11505;-87
2024/04/16 03:43:38;;;;;;;;;1.75;1.75;;;;;;;;5454794;26;11503;-90
2024/04/16 03:46:07;;;;;;;;;2.00;1.00;;;;;;;;5445963;26;11504;-90
2024/04/16 03:48:33;;;;;;;;;3.00;1.50;;;;;;;;5429018;26;11519;-87
2024/04/16 03:51:04;;;;;;;;;1.50;1.25;;;;;;;;5453443;26;11577;-89
2024/04/16 03:53:30;;;;;;;;;4.00;1.75;;;;;;;;5454567;26;11534;-85
2024/04/16 03:56:02;;;;;;;;;4.00;1.50;;;;;;;;5456489;26;12333;-94
2024/04/16 03:58:28;;;;;;;;;3.75;1.00;;;;;;;;5451116;26;11490;-89
2024/04/16 04:01:05;;;;;;;;;3.25;2.00;;;;;;;;5438871;26;11298;-90
2024/04/16 04:03:32;;;;;;;;;1.75;1.75;;;;;;;;5439806;26;11515;-86
2024/04/16 04:06:01;;;;;;;;;0.50;0.50;;;;;;;;5432438;26;11511;-86
2024/04/16 04:08:27;;;;;;;;;2.75;1.00;;;;;;;;5425860;26;11463;-89
2024/04/16 04:10:57;;;;;;;;;1.00;1.00;;;;;;;;5450609;26;11463;-86
2024/04/16 04:13:26;;;;;;;;;2.00;2.00;;;;;;;;5450963;26;11467;-88
2024/04/16 04:15:56;;;;;;;;;1.25;1.25;;;;;;;;5450440;26;11598;-90
2024/04/16 04:18:22;;;;;;;;;4.75;2.50;;;;;;;;5450029;26;11481;-89
2024/04/16 04:20:51;;;;;;;;;2.75;2.00;;;;;;;;5451471;26;11533;-89
2024/04/16 04:23:18;;;;;;;;;2.00;2.00;;;;;;;;5431076;26;11532;-91
2024/04/16 04:25:47;;;;;;;;;0.75;0.75;;;;;;;;5453767;26;11479;-88
2024/04/16 04:28:13;;;;;;;;;3.75;1.50;;;;;;;;5450480;26;11492;-89
2024/04/16 04:30:47;;;;;;;;;3.50;2.00;;;;;;;;5431078;26;11270;-86
2024/04/16 04:33:14;;;;;;;;;3.25;2.00;;;;;;;;5427852;26;11474;-89
2024/04/16 04:35:48;;;;;;;;;4.00;2.75;;;;;;;;5450538;26;11710;-89
2024/04/16 04:38:15;;;;;;;;;2.25;2.25;;;;;;;;5417133;26;11520;-90
2024/04/16 04:40:44;;;;;;;;;3.50;2.00;;;;;;;;5441761;26;11495;-92
2024/04/16 04:43:10;;;;;;;;;3.00;2.00;;;;;;;;5450863;26;11515;-92
2024/04/16 04:48:26;;;;;;;;;2.00;1.00;;;;;;;;5414276;26;12224;-91
2024/04/16 04:51:01;;;;;;;;;2.50;1.75;;;;;;;;5426822;26;11512;-90
2024/04/16 04:53:34;;;;;;;;;1.00;1.00;;;;;;;;5450702;26;11506;-92
2024/04/16 04:56:03;;;;;;;;;2.00;2.00;;;;;;;;5450398;26;11460;-89
2024/04/16 04:58:35;;;;;;;;;2.50;2.00;;;;;;;;5429644;26;11532;-86
2024/04/16 05:01:04;;;;;;;;;2.50;1.00;;;;;;;;5417506;26;11265;-92
2024/04/16 05:03:43;;;;;;;;;2.25;2.00;;;;;;;;5443128;26;11497;-94
2024/04/16 05:06:14;;;;;;;;;2.00;2.00;;;;;;;;5434081;26;11501;-92
2024/04/16 05:08:43;;;;;;;;;1.75;1.75;;;;;;;;5447762;26;11520;-91
2024/04/16 05:11:09;;;;;;;;;3.75;2.00;;;;;;;;5429005;26;11532;-80
2024/04/16 05:13:39;;;;;;;;;4.75;3.00;;;;;;;;5417947;26;11616;-83
2024/04/16 05:16:06;;;;;;;;;3.50;2.50;;;;;;;;5436288;26;11516;-87
2024/04/16 05:18:53;;;;;;;;;4.00;1.50;;;;;;;;5427525;26;11439;-85
2024/04/16 05:21:19;;;;;;;;;3.25;3.25;;;;;;;;5449979;26;11553;-83
2024/04/16 05:23:48;;;;;;;;;3.00;2.00;;;;;;;;5437589;26;11555;-84
2024/04/16 05:26:15;;;;;;;;;2.00;2.00;;;;;;;;5420762;26;11568;-85
2024/04/16 05:28:52;;;;;;;;;4.00;2.00;;;;;;;;5438005;26;11487;-84
2024/04/16 05:31:19;;;;;;;;;5.25;1.50;;;;;;;;5442334;26;11356;-85
2024/04/16 05:33:56;;;;;;;;;1.25;1.25;;;;;;;;5435289;26;11595;-84
2024/04/16 05:36:33;;;;;;;;;3.00;2.50;;;;;;;;5419320;26;11541;-80
2024/04/16 05:39:09;;;;;;;;;3.75;2.00;;;;;;;;5438027;26;11575;-82
2024/04/16 05:41:35;;;;;;;;;3.75;2.25;;;;;;;;5414430;26;11503;-82
2024/04/16 05:44:10;;;;;;;;;2.25;2.25;;;;;;;;5417370;26;11508;-81
2024/04/16 05:46:54;;;;;;;;;2.75;2.75;;;;;;;;5432295;26;11630;-81
2024/04/16 05:49:26;;;;;;;;;4.00;4.00;;;;;;;;5430726;26;11521;-85
2024/04/16 05:51:54;;;;;;;;;2.50;1.00;;;;;;;;5448125;26;11865;-81
2024/04/16 05:54:26;;;;;;;;;3.00;3.00;;;;;;;;5415714;26;11210;-84
2024/04/16 05:56:53;;;;;;;;;3.75;1.25;;;;;;;;5416085;26;11525;-80
2024/04/16 05:59:22;;;;;;;;;1.00;1.00;;;;;;;;5426800;26;11165;-87
2024/04/16 06:01:48;;;;;;;;;2.00;2.00;;;;;;;;5445687;26;10823;-81
2024/04/16 06:04:17;;;;;;;;;2.25;2.25;;;;;;;;5427608;26;10963;-82
2024/04/16 06:06:46;;;;;;;;;2.00;1.00;;;;;;;;5447821;26;11008;-78
2024/04/16 06:09:15;;;;;;;;;2.25;2.25;;;;;;;;5448892;26;11001;-85
2024/04/16 06:11:41;;;;;;;;;3.75;1.75;;;;;;;;5422467;26;10975;-82
2024/04/16 06:14:10;;;;;;;;;2.50;2.50;;;;;;;;5430367;26;10802;-81
2024/04/16 06:16:37;;;;;;;;;2.50;0.25;;;;;;;;5446308;26;10664;-80
2024/04/16 06:19:07;;;;;;;;;2.00;1.00;;;;;;;;5432887;26;10743;-80
2024/04/16 06:21:33;;;;;;;;;0.50;0.50;;;;;;;;5426878;26;10821;-81
2024/04/16 06:24:08;;;;;;;;;3.00;2.00;;;;;;;;5420181;26;11006;-81
2024/04/16 06:26:34;;;;;;;;;1.00;1.00;;;;;;;;5430591;26;11056;-81
2024/04/16 06:29:04;;;;;;;;;4.75;2.25;;;;;;;;5439822;26;10919;-77
2024/04/16 06:31:31;;;;;;;;;3.00;1.00;;;;;;;;5443477;26;10783;-79
2024/04/16 06:33:59;;;;;;;;;2.25;1.75;;;;;;;;5440584;26;10868;-82
2024/04/16 06:36:26;;;;;;;;;3.00;1.00;;;;;;;;5428920;26;10832;-79
2024/04/16 06:38:56;;;;;;;;;2.50;2.00;;;;;;;;5450642;26;10974;-77
2024/04/16 06:41:31;;;;;;;;;1.25;1.25;;;;;;;;5450098;26;10802;-76
2024/04/16 06:44:02;;;;;;;;;1.00;1.00;;;;;;;;5449291;26;10648;-78
2024/04/16 06:46:29;;;;;;;;;4.50;1.25;;;;;;;;5431459;26;10610;-77
2024/04/16 06:48:58;;;;;;;;;2.50;1.00;;;;;;;;5449756;26;10695;-80
2024/04/16 06:51:24;;;;;;;;;6.25;1.00;;;;;;;;5450309;26;10553;-78
2024/04/16 06:53:53;;;;;;;;;3.25;2.00;;;;;;;;5449416;26;10769;-79
2024/04/16 06:56:19;;;;;;;;;2.50;2.50;;;;;;;;5450154;26;10763;-79
2024/04/16 06:58:51;;;;;;;;;1.00;1.00;;;;;;;;5422943;26;10534;-79
2024/04/16 07:01:18;;;;;;;;;0.25;0.25;;;;;;;;5433204;26;10309;-78
2024/04/16 07:03:47;;;;;;;;;2.25;1.00;;;;;;;;5449944;26;10448;-77
2024/04/16 07:06:13;;;;;;;;;3.50;2.00;;;;;;;;5450731;26;10388;-79
2024/04/16 07:08:44;;;;;;;;;5.00;1.50;;;;;;;;5450278;26;10484;-80
2024/04/16 07:11:10;;;;;;;;;2.00;2.00;;;;;;;;5451064;26;10483;-82
2024/04/16 07:13:43;;;;;;;;;3.00;1.00;;;;;;;;5451734;26;10382;-83
2024/04/16 07:16:18;;;;;;;;;1.75;1.50;;;;;;;;5430878;26;10463;-85
2024/04/16 07:18:47;;;;;;;;;2.75;2.75;;;;;;;;5451210;26;10379;-82
2024/04/16 07:21:16;;;;;;;;;3.00;1.00;;;;;;;;5452074;26;10268;-82
2024/04/16 07:23:42;;;;;;;;;3.50;1.75;;;;;;;;5449857;26;10195;-77
2024/04/16 07:26:11;;;;;;;;;3.00;1.00;;;;;;;;5449370;26;10131;-80
2024/04/16 07:28:37;;;;;;;;;1.00;0.75;;;;;;;;5446848;26;9948;-81
2024/04/16 07:31:09;;;;;;;;;3.00;1.00;;;;;;;;5443479;26;10609;-81
2024/04/16 07:33:38;;;;;;;;;0.00;0.00;;;;;;;;5431093;26;10070;-84
2024/04/16 07:36:08;;;;;;;;;0.00;0.00;;;;;;;;5427381;26;9730;-81
2024/04/16 07:38:35;;;;;;;;;3.50;0.75;;;;;;;;5449048;26;9690;-81
2024/04/16 07:41:04;;;;;;;;;1.00;1.00;;;;;;;;5421129;26;9752;-81
2024/04/16 07:43:34;;;;;;;;;2.75;1.00;;;;;;;;5434144;26;9764;-83
2024/04/16 07:46:06;;;;;;;;;3.00;2.00;;;;;;;;5419144;26;9709;-81
2024/04/16 07:48:32;;;;;;;;;2.00;2.00;;;;;;;;5436202;26;9628;-83
2024/04/16 07:51:04;;;;;;;;;4.00;1.00;;;;;;;;5418360;26;9915;-83
2024/04/16 07:53:32;;;;;;;;;3.25;1.00;;;;;;;;5415637;26;9674;-81
2024/04/16 07:56:01;;;;;;;;;3.00;2.00;;;;;;;;5453279;26;9537;-80
2024/04/16 07:58:30;;;;;;;;;2.25;2.25;;;;;;;;5446680;26;9700;-80
2024/04/16 08:01:01;;;;;;;;;0.25;0.25;;;;;;;;5447740;26;9411;-81
2024/04/16 08:03:30;;;;;;;;;4.00;3.75;;;;;;;;5448897;26;9548;-78
2024/04/16 08:05:59;;;;;;;;;3.00;3.00;;;;;;;;5429990;26;9621;-81
2024/04/16 08:08:28;;;;;;;;;2.00;2.00;;;;;;;;5449050;26;9549;-80
2024/04/16 08:10:57;;;;;;;;;0.00;0.00;;;;;;;;5448959;26;9377;-82
2024/04/16 08:13:23;;;;;;;;;3.33;2.00;;;;;;;;5449186;26;9192;-81
2024/04/16 08:15:52;;;;;;;;;1.50;1.00;;;;;;;;5450275;26;9396;-81
2024/04/16 08:18:18;;;;;;;;;4.25;2.25;;;;;;;;5450094;26;9488;-81
2024/04/16 08:20:47;;;;;;;;;1.50;1.50;;;;;;;;5435141;26;9503;-81
2024/04/16 08:23:13;;;;;;;;;1.25;1.25;;;;;;;;5445071;26;9375;-80
2024/04/16 08:25:45;;;;;;;;;1.67;1.00;;;;;;;;5448603;26;9394;-81
2024/04/16 08:28:11;;;;;;;;;0.00;0.00;;;;;;;;5448199;26;9378;-81
2024/04/16 08:30:43;;;;;;;;;1.00;1.00;;;;;;;;5448287;26;9044;-80
2024/04/16 08:33:14;;;;;;;;;1.00;1.00;;;;;;;;5448510;26;9155;-80
2024/04/16 08:35:43;;;;;;;;;0.00;0.00;;;;;;;;5426547;26;9146;-80
2024/04/16 08:38:09;;;;;;;;;0.00;0.00;;;;;;;;5425260;26;9233;-80
2024/04/16 08:40:39;;;;;;;;;3.67;2.00;;;;;;;;5426280;26;9180;-82
2024/04/16 08:43:09;;;;;;;;;0.00;0.00;;;;;;;;5426794;26;9209;-83
2024/04/16 08:45:38;;;;;;;;;1.00;1.00;;;;;;;;5448462;26;9025;-81
2024/04/16 08:48:05;;;;;;;;;0.00;0.00;;;;;;;;5436243;26;8879;-82
2024/04/16 08:50:39;;;;;;;;;0.00;0.00;;;;;;;;5441118;26;8928;-83
2024/04/16 08:53:07;;;;;;;;;0.50;0.50;;;;;;;;5450062;26;8859;-82
2024/04/16 08:55:36;;;;;;;;;1.50;0.00;;;;;;;;5430689;26;8835;-82
2024/04/16 08:58:03;;;;;;;;;1.00;1.00;;;;;;;;5450973;26;8863;-82
2024/04/16 09:00:35;;;;;;;;;0.00;0.00;;;;;;;;5427812;26;8771;-81
2024/04/16 09:03:01;;;;;;;;;0.25;0.25;;;;;;;;5420759;26;8889;-83
2024/04/16 09:05:31;;;;;;;;;1.00;1.00;;;;;;;;5444414;26;8959;-83
2024/04/16 09:07:57;;;;;;;;;0.75;0.75;;;;;;;;5421604;26;8863;-80
2024/04/16 09:10:28;;;;;;;;;1.00;1.00;;;;;;;;5432092;26;9781;-82
2024/04/16 09:12:54;;;;;;;;;1.50;0.75;;;;;;;;5431069;26;8910;-81
2024/04/16 09:15:26;;;;;;;;;0.25;0.25;;;;;;;;5423866;26;8878;-81
2024/04/16 09:17:56;;;;;;;;;0.00;0.00;;;;;;;;5438411;26;8840;-81
2024/04/16 09:20:27;;;;;;;;;1.00;0.75;;;;;;;;5438439;26;8840;-81
2024/04/16 09:22:54;;;;;;;;;1.50;1.50;;;;;;;;5422943;26;8899;-80
2024/04/16 09:25:28;;;;;;;;;0.50;0.50;;;;;;;;5448326;26;8878;-80
2024/04/16 09:27:56;;;;;;;;;0.75;0.75;;;;;;;;5446856;26;8856;-79
2024/04/16 09:30:30;;;;;;;;;3.50;1.00;;;;;;;;5427179;26;8804;-79
2024/04/16 09:33:00;;;;;;;;;2.50;1.50;;;;;;;;5444451;26;8886;-80
2024/04/16 09:35:30;;;;;;;;;2.50;0.75;;;;;;;;5428490;26;8951;-79
2024/04/16 09:38:00;;;;;;;;;0.00;0.00;;;;;;;;5421610;26;8828;-79
2024/04/16 09:40:31;;;;;;;;;0.75;0.75;;;;;;;;5428071;26;8879;-79
2024/04/16 09:43:01;;;;;;;;;0.00;0.00;;;;;;;;5447052;26;8824;-78
2024/04/16 09:45:33;;;;;;;;;0.50;0.00;;;;;;;;5446570;26;8843;-78
2024/04/16 09:48:04;;;;;;;;;0.00;0.00;;;;;;;;5447304;26;8880;-79
2024/04/16 09:50:35;;;;;;;;;2.50;0.50;;;;;;;;5448935;26;8851;-78
2024/04/16 09:53:05;;;;;;;;;0.00;0.00;;;;;;;;5436839;26;8863;-78
2024/04/16 09:55:34;;;;;;;;;0.00;0.00;;;;;;;;5430681;26;8860;-79
2024/04/16 09:58:02;;;;;;;;;0.00;0.00;;;;;;;;5437449;26;8887;-79
2024/04/16 10:00:31;;;;;;;;;0.00;0.00;;;;;;;;5449442;26;8724;-78
2024/04/16 10:03:03;;;;;;;;;0.00;0.00;;;;;;;;5436780;26;8856;-78
2024/04/16 10:05:32;;;;;;;;;2.00;0.00;;;;;;;;5450858;26;8876;-78
2024/04/16 10:07:59;;;;;;;;;0.00;0.00;;;;;;;;5450158;26;8839;-78
2024/04/16 10:10:29;;;;;;;;;0.00;0.00;;;;;;;;5441670;26;8824;-78
2024/04/16 10:12:58;;;;;;;;;0.25;0.25;;;;;;;;5432409;26;8902;-78
2024/04/16 10:15:27;;;;;;;;;0.00;0.00;;;;;;;;5440042;26;8863;-79
2024/04/16 10:17:56;;;;;;;;;0.00;0.00;;;;;;;;5432956;26;8874;-80
2024/04/16 10:20:29;;;;;;;;;0.00;0.00;;;;;;;;5440763;26;8851;-77
2024/04/16 10:22:57;;;;;;;;;0.00;0.00;;;;;;;;5428930;26;8887;-81
2024/04/16 10:25:31;;;;;;;;;1.25;1.25;;;;;;;;5439105;26;8847;-80
2024/04/16 10:28:01;;;;;;;;;0.00;0.00;;;;;;;;5444326;26;8855;-82
2024/04/16 10:30:31;;;;;;;;;0.00;0.00;;;;;;;;5437009;26;8798;-80
2024/04/16 10:32:58;;;;;;;;;0.00;0.00;;;;;;;;5450572;26;8875;-81
2024/04/16 10:35:30;;;;;;;;;0.75;0.75;;;;;;;;5452132;26;9589;-80
2024/04/16 10:37:57;;;;;;;;;0.00;0.00;;;;;;;;5453029;26;8980;-81
2024/04/16 10:40:29;;;;;;;;;0.00;0.00;;;;;;;;5456036;26;9574;-79
2024/04/16 10:42:56;;;;;;;;;0.00;0.00;;;;;;;;5453334;26;8890;-81
2024/04/16 10:45:28;;;;;;;;;2.75;0.25;;;;;;;;5454113;26;8960;-79
2024/04/16 10:47:55;;;;;;;;;0.00;0.00;;;;;;;;5430959;26;8851;-80
2024/04/16 10:50:26;;;;;;;;;0.00;0.00;;;;;;;;5453975;26;8872;-79
2024/04/16 10:52:55;;;;;;;;;0.00;0.00;;;;;;;;5454214;26;8856;-82
2024/04/16 10:55:27;;;;;;;;;0.00;0.00;;;;;;;;5453121;26;9581;-79
2024/04/16 10:57:54;;;;;;;;;0.25;0.25;;;;;;;;5450739;26;8871;-80
2024/04/16 11:00:23;;;;;;;;;0.25;0.25;;;;;;;;5449699;26;8834;-77
2024/04/16 11:02:49;;;;;;;;;3.50;2.00;;;;;;;;5449991;26;8867;-79
2024/04/16 11:05:22;;;;;;;;;3.00;0.00;;;;;;;;5449853;26;9609;-78
2024/04/16 11:07:50;;;;;;;;;2.25;2.25;;;;;;;;5450698;26;8875;-80
2024/04/16 11:10:22;;;;;;;;;0.00;0.00;;;;;;;;5448812;26;8852;-78
2024/04/16 11:12:48;;;;;;;;;5.00;1.25;;;;;;;;5449262;26;8840;-79
2024/04/16 11:15:17;;;;;;;;;0.00;0.00;;;;;;;;5449294;26;8834;-78
2024/04/16 11:17:44;;;;;;;;;0.00;0.00;;;;;;;;5448872;26;9617;-78
2024/04/16 11:20:15;;;;;;;;;1.00;1.00;;;;;;;;5448371;26;9696;-79
2024/04/16 11:22:42;;;;;;;;;0.00;0.00;;;;;;;;5449149;26;9692;-78
2024/04/16 11:25:17;;;;;;;;;0.00;0.00;;;;;;;;5448664;26;8836;-77
2024/04/16 11:27:46;;;;;;;;;1.00;1.00;;;;;;;;5447683;26;8912;-78
2024/04/16 11:30:15;;;;;;;;;0.00;0.00;;;;;;;;5447314;26;8874;-79
2024/04/16 11:32:41;;;;;;;;;0.00;0.00;;;;;;;;5448242;26;8879;-78
2024/04/16 11:35:10;;;;;;;;;0.00;0.00;;;;;;;;5448790;26;9605;-79
2024/04/16 11:37:37;;;;;;;;;1.50;0.00;;;;;;;;5422854;26;8856;-80
2024/04/16 11:40:10;;;;;;;;;2.25;1.50;;;;;;;;5430294;26;8840;-78
2024/04/16 11:42:40;;;;;;;;;0.00;0.00;;;;;;;;5424968;26;8848;-79
2024/04/16 11:45:14;;;;;;;;;0.00;0.00;;;;;;;;5449722;26;8803;-79
2024/04/16 11:47:41;;;;;;;;;1.00;1.00;;;;;;;;5418110;26;8820;-80
2024/04/16 11:50:12;;;;;;;;;0.00;0.00;;;;;;;;5436132;26;8840;-78
2024/04/16 11:52:38;;;;;;;;;0.00;0.00;;;;;;;;5419410;26;8828;-79
2024/04/16 11:55:08;;;;;;;;;0.00;0.00;;;;;;;;5440276;26;9613;-78
2024/04/16 11:57:35;;;;;;;;;0.00;0.00;;;;;;;;5439465;26;8832;-79
2024/04/16 12:00:04;;;;;;;;;1.00;0.00;;;;;;;;5439316;26;8851;-78
2024/04/16 12:02:32;;;;;;;;;0.50;0.00;;;;;;;;5438016;26;8824;-79
2024/04/16 12:05:01;;;;;;;;;0.00;0.00;;;;;;;;5419900;26;8836;-78
2024/04/16 12:07:28;;;;;;;;;0.00;0.00;;;;;;;;5437254;26;8921;-79
2024/04/16 12:09:56;;;;;;;;;1.75;1.00;;;;;;;;5440288;26;8828;-78
2024/04/16 12:12:23;;;;;;;;;0.75;0.75;;;;;;;;5427881;26;8832;-78
2024/04/16 12:14:52;;;;;;;;;0.00;0.00;;;;;;;;5448160;26;8956;-79
2024/04/16 12:17:18;;;;;;;;;0.25;0.25;;;;;;;;5449027;26;8832;-78
2024/04/16 12:19:50;;;;;;;;;0.00;0.00;;;;;;;;5428448;26;8820;-79
2024/04/16 12:22:16;;;;;;;;;1.25;0.00;;;;;;;;5433969;26;8828;-79
2024/04/16 12:24:45;;;;;;;;;1.00;0.00;;;;;;;;5441238;26;9552;-77
2024/04/16 12:27:11;;;;;;;;;1.00;0.00;;;;;;;;5434184;26;8886;-78
2024/04/16 12:29:43;;;;;;;;;0.00;0.00;;;;;;;;5434901;26;8836;-78
2024/04/16 12:32:09;;;;;;;;;0.00;0.00;;;;;;;;5432385;26;8788;-81
2024/04/16 12:34:40;;;;;;;;;0.25;0.25;;;;;;;;5449263;26;8862;-80
2024/04/16 12:37:11;;;;;;;;;0.00;0.00;;;;;;;;5451850;26;8840;-82
2024/04/16 12:39:40;;;;;;;;;0.00;0.00;;;;;;;;5426619;26;8846;-79
2024/04/16 12:42:07;;;;;;;;;0.00;0.00;;;;;;;;5451397;26;8867;-79
2024/04/16 12:44:37;;;;;;;;;0.00;0.00;;;;;;;;5439170;26;8871;-78
2024/04/16 12:47:04;;;;;;;;;0.00;0.00;;;;;;;;5437945;26;8876;-78
2024/04/16 12:49:33;;;;;;;;;0.50;0.00;;;;;;;;5447877;26;8832;-77
2024/04/16 12:51:59;;;;;;;;;0.00;0.00;;;;;;;;5447916;26;9655;-77
2024/04/16 12:54:31;;;;;;;;;0.00;0.00;;;;;;;;5445002;26;9664;-78
2024/04/16 12:56:57;;;;;;;;;0.00;0.00;;;;;;;;5447175;26;8913;-78
2024/04/16 12:59:26;;;;;;;;;0.00;0.00;;;;;;;;5447129;26;8840;-77
2024/04/16 13:01:52;;;;;;;;;0.00;0.00;;;;;;;;5446944;26;8833;-76
2024/04/16 13:04:23;;;;;;;;;0.00;0.00;;;;;;;;5447782;26;8854;-79
2024/04/16 13:06:50;;;;;;;;;0.00;0.00;;;;;;;;5449087;26;8926;-78
2024/04/16 13:09:19;;;;;;;;;0.00;0.00;;;;;;;;5452379;26;8828;-80
2024/04/16 13:11:47;;;;;;;;;0.00;0.00;;;;;;;;5447233;26;9660;-81
2024/04/16 13:14:17;;;;;;;;;1.75;0.00;;;;;;;;5448163;26;8773;-79
2024/04/16 13:16:43;;;;;;;;;0.00;0.00;;;;;;;;5444877;26;8844;-79
2024/04/16 13:19:13;;;;;;;;;0.00;0.00;;;;;;;;5446824;26;8832;-80
2024/04/16 13:21:39;;;;;;;;;0.00;0.00;;;;;;;;5444590;26;8868;-79
2024/04/16 13:24:08;;;;;;;;;0.00;0.00;;;;;;;;5447281;26;8874;-79
2024/04/16 13:26:34;;;;;;;;;1.00;0.00;;;;;;;;5439886;26;8832;-78
2024/04/16 13:29:06;;;;;;;;;0.00;0.00;;;;;;;;5446075;26;8848;-78
2024/04/16 13:31:35;;;;;;;;;0.25;0.00;;;;;;;;5444479;26;10775;-78
2024/04/16 13:34:01;;;;;;;;;0.00;0.00;;;;;;;;5447580;26;8831;-78
2024/04/16 13:36:30;;;;;;;;;0.25;0.00;;;;;;;;5414717;26;8824;-79
2024/04/16 13:38:56;;;;;;;;;0.00;0.00;;;;;;;;5416026;26;8848;-79
2024/04/16 13:41:28;;;;;;;;;0.00;0.00;;;;;;;;5427089;26;8975;-77
2024/04/16 13:43:54;;;;;;;;;0.00;0.00;;;;;;;;5424926;26;8895;-78
2024/04/16 13:46:28;;;;;;;;;1.75;0.00;;;;;;;;5414163;26;8877;-78
2024/04/16 13:48:54;;;;;;;;;0.25;0.25;;;;;;;;5418265;26;8898;-78
2024/04/16 13:51:25;;;;;;;;;0.00;0.00;;;;;;;;5433372;26;8931;-78
2024/04/16 13:53:53;;;;;;;;;2.00;0.00;;;;;;;;5420095;26;8863;-78
2024/04/16 13:56:23;;;;;;;;;0.00;0.00;;;;;;;;5447030;26;8816;-79
2024/04/16 13:58:50;;;;;;;;;0.00;0.00;;;;;;;;5441665;26;9812;-78
2024/04/16 14:01:19;;;;;;;;;0.00;0.00;;;;;;;;5413283;26;8924;-79
2024/04/16 14:03:50;;;;;;;;;0.00;0.00;;;;;;;;5442524;26;8832;-78
2024/04/16 14:06:19;;;;;;;;;0.75;0.50;;;;;;;;5447233;26;8848;-79
2024/04/16 14:08:45;;;;;;;;;1.25;1.25;;;;;;;;5417372;26;8879;-79
2024/04/16 14:11:14;;;;;;;;;0.25;0.25;;;;;;;;5414712;26;8788;-85
2024/04/16 14:13:43;;;;;;;;;0.00;0.00;;;;;;;;5424699;26;8844;-80
2024/04/16 14:16:09;;;;;;;;;0.00;0.00;;;;;;;;5443395;26;8828;-79
2024/04/16 14:18:58;;;;;;;;;0.00;0.00;;;;;;;;5439441;26;8780;-80
2024/04/16 14:21:28;;;;;;;;;0.00;0.00;;;;;;;;5425230;26;8820;-79
2024/04/16 14:23:57;;;;;;;;;1.00;1.00;;;;;;;;5423513;26;8952;-79
2024/04/16 14:26:24;;;;;;;;;3.25;2.00;;;;;;;;5435178;26;8821;-80
2024/04/16 14:28:54;;;;;;;;;3.75;3.00;;;;;;;;5449097;26;8824;-79
2024/04/16 14:31:20;;;;;;;;;1.25;1.25;;;;;;;;5432800;26;8815;-79
2024/04/16 14:33:49;;;;;;;;;0.00;0.00;;;;;;;;5446490;26;8836;-78
2024/04/16 14:36:29;;;;;;;;;;;;;;;;;;;;;
2024/04/16 14:39:06;;;;;;;;;2.25;0.00;;;;;;;;5446635;26;8847;-77
2024/04/16 14:41:37;;;;;;;;;0.00;0.00;;;;;;;;5429167;26;8800;-78
2024/04/16 14:44:11;;;;;;;;;0.00;0.00;;;;;;;;5424449;26;8878;-78
2024/04/16 14:46:46;;;;;;;;;1.00;0.00;;;;;;;;5415996;26;8845;-78
2024/04/16 14:49:19;;;;;;;;;0.00;0.00;;;;;;;;5415703;26;8820;-78
2024/04/16 14:51:57;;;;;;;;;1.25;0.00;;;;;;;;5435580;26;8882;-78
2024/04/16 14:54:36;;;;;;;;;0.00;0.00;;;;;;;;5449037;26;8868;-78
2024/04/16 14:57:08;;;;;;;;;0.75;0.75;;;;;;;;5427316;26;8840;-77
2024/04/16 14:59:38;;;;;;;;;1.25;0.00;;;;;;;;5433510;26;8968;-78
2024/04/16 15:02:06;;;;;;;;;0.00;0.00;;;;;;;;5427114;26;8813;-78
2024/04/16 15:04:38;;;;;;;;;0.00;0.00;;;;;;;;5431954;26;8839;-79